sensor_id;sensor_type;location;lat;lon;timestamp;temperature;humidity
21722;DHT22;11023;48.274;7.794;2022-10-16T00:00:32;15.80;99.90
21722;DHT22;11023;48.274;7.794;2022-10-16T00:02:58;15.80;99.90
21722;DHT22;11023;48.274;7.794;2022-10-16T00:05:24;15.80;99.90
21722;DHT22;11023;48.274;7.794;2022-10-16T00:07:50;15.90;99.90
21722;DHT22;11023;48.274;7.794;2022-10-16T00:10:15;15.90;99.90
21722;DHT22;11023;48.274;7.794;2022-10-16T00:12:41;15.90;99.90
21722;DHT22;11023;48.274;7.794;2022-10-16T00:15:07;15.90;99.90
21722;DHT22;11023;48.274;7.794;2022-10-16T00:17:33;15.90;99.90
21722;DHT22;11023;48.274;7.794;2022-10-16T00:19:58;15.90;99.90
21722;DHT22;11023;48.274;7.794;2022-10-16T00:22:24;16.00;99.90
21722;DHT22;11023;48.274;7.794;2022-10-16T00:24:50;16.00;99.90
21722;DHT22;11023;48.274;7.794;2022-10-16T00:27:16;16.00;99.90
21722;DHT22;11023;48.274;7.794;2022-10-16T00:29:42;16.00;99.90
21722;DHT22;11023;48.274;7.794;2022-10-16T00:32:08;16.00;99.90
21722;DHT22;11023;48.274;7.794;2022-10-16T00:34:34;16.00;99.90
21722;DHT22;11023;48.274;7.794;2022-10-16T00:37:00;16.00;99.90
21722;DHT22;11023;48.274;7.794;2022-10-16T00:39:26;16.00;99.90
21722;DHT22;11023;48.274;7.794;2022-10-16T00:41:52;16.00;99.90
21722;DHT22;11023;48.274;7.794;2022-10-16T00:44:47;16.00;99.90
21722;DHT22;11023;48.274;7.794;2022-10-16T00:49:51;16.00;99.90
21722;DHT22;11023;48.274;7.794;2022-10-16T00:52:19;15.90;99.90
21722;DHT22;11023;48.274;7.794;2022-10-16T00:54:46;15.90;99.90
21722;DHT22;11023;48.274;7.794;2022-10-16T00:57:12;15.90;99.90
21722;DHT22;11023;48.274;7.794;2022-10-16T00:59:40;15.90;99.90
21722;DHT22;11023;48.274;7.794;2022-10-16T01:02:10;15.90;99.90
21722;DHT22;11023;48.274;7.794;2022-10-16T01:04:43;15.90;99.90
21722;DHT22;11023;48.274;7.794;2022-10-16T01:14:53;15.70;99.90
21722;DHT22;11023;48.274;7.794;2022-10-16T01:20:07;15.70;99.90
21722;DHT22;11023;48.274;7.794;2022-10-16T01:28:00;15.60;99.90
21722;DHT22;11023;48.274;7.794;2022-10-16T01:30:30;15.50;99.90
21722;DHT22;11023;48.274;7.794;2022-10-16T01:33:14;15.50;99.90
21722;DHT22;11023;48.274;7.794;2022-10-16T01:35:46;15.50;99.90
21722;DHT22;11023;48.274;7.794;2022-10-16T01:38:19;15.50;99.90
21722;DHT22;11023;48.274;7.794;2022-10-16T01:40:50;15.50;99.90
21722;DHT22;11023;48.274;7.794;2022-10-16T01:43:22;15.40;99.90
21722;DHT22;11023;48.274;7.794;2022-10-16T01:45:51;15.40;99.90
21722;DHT22;11023;48.274;7.794;2022-10-16T01:48:19;15.40;99.90
21722;DHT22;11023;48.274;7.794;2022-10-16T01:51:05;15.30;99.90
21722;DHT22;11023;48.274;7.794;2022-10-16T01:53:33;15.30;99.90
21722;DHT22;11023;48.274;7.794;2022-10-16T01:55:59;15.30;99.90
21722;DHT22;11023;48.274;7.794;2022-10-16T01:58:27;15.30;99.90
21722;DHT22;11023;48.274;7.794;2022-10-16T02:00:56;15.30;99.90
21722;DHT22;11023;48.274;7.794;2022-10-16T02:03:23;15.30;99.90
21722;DHT22;11023;48.274;7.794;2022-10-16T02:05:52;15.30;99.90
21722;DHT22;11023;48.274;7.794;2022-10-16T02:08:19;15.30;99.90
21722;DHT22;11023;48.274;7.794;2022-10-16T02:10:47;15.30;99.90
21722;DHT22;11023;48.274;7.794;2022-10-16T02:13:17;15.30;99.90
21722;DHT22;11023;48.274;7.794;2022-10-16T02:15:44;15.20;99.90
21722;DHT22;11023;48.274;7.794;2022-10-16T02:18:10;15.20;99.90
21722;DHT22;11023;48.274;7.794;2022-10-16T02:20:49;15.20;99.90
21722;DHT22;11023;48.274;7.794;2022-10-16T02:23:22;15.20;99.90
21722;DHT22;11023;48.274;7.794;2022-10-16T02:25:50;15.20;99.90
21722;DHT22;11023;48.274;7.794;2022-10-16T02:28:28;15.20;99.90
21722;DHT22;11023;48.274;7.794;2022-10-16T02:31:03;15.10;99.90
21722;DHT22;11023;48.274;7.794;2022-10-16T02:33:30;15.10;99.90
21722;DHT22;11023;48.274;7.794;2022-10-16T02:35:57;15.10;99.90
21722;DHT22;11023;48.274;7.794;2022-10-16T02:38:24;15.00;99.90
21722;DHT22;11023;48.274;7.794;2022-10-16T02:40:50;15.00;99.90
21722;DHT22;11023;48.274;7.794;2022-10-16T02:43:16;15.00;99.90
21722;DHT22;11023;48.274;7.794;2022-10-16T02:45:42;15.00;99.90
21722;DHT22;11023;48.274;7.794;2022-10-16T02:48:08;15.00;99.90
21722;DHT22;11023;48.274;7.794;2022-10-16T02:50:34;15.00;99.90
21722;DHT22;11023;48.274;7.794;2022-10-16T02:53:00;15.00;99.90
21722;DHT22;11023;48.274;7.794;2022-10-16T02:55:26;15.00;99.90
21722;DHT22;11023;48.274;7.794;2022-10-16T02:57:53;15.00;99.90
21722;DHT22;11023;48.274;7.794;2022-10-16T03:00:19;15.00;99.90
21722;DHT22;11023;48.274;7.794;2022-10-16T03:02:46;15.00;99.90
21722;DHT22;11023;48.274;7.794;2022-10-16T03:05:13;15.00;99.90
21722;DHT22;11023;48.274;7.794;2022-10-16T03:07:39;14.90;99.90
21722;DHT22;11023;48.274;7.794;2022-10-16T03:10:06;14.90;99.90
21722;DHT22;11023;48.274;7.794;2022-10-16T03:12:32;14.90;99.90
21722;DHT22;11023;48.274;7.794;2022-10-16T03:14:58;15.00;99.90
21722;DHT22;11023;48.274;7.794;2022-10-16T03:17:24;15.00;99.90
21722;DHT22;11023;48.274;7.794;2022-10-16T03:19:50;15.00;99.90
21722;DHT22;11023;48.274;7.794;2022-10-16T03:22:16;15.00;99.90
21722;DHT22;11023;48.274;7.794;2022-10-16T03:24:42;15.00;99.90
21722;DHT22;11023;48.274;7.794;2022-10-16T03:27:08;15.00;99.90
21722;DHT22;11023;48.274;7.794;2022-10-16T03:29:34;15.00;99.90
21722;DHT22;11023;48.274;7.794;2022-10-16T03:32:00;15.00;99.90
21722;DHT22;11023;48.274;7.794;2022-10-16T03:34:26;15.00;99.90
21722;DHT22;11023;48.274;7.794;2022-10-16T03:36:53;15.00;99.90
21722;DHT22;11023;48.274;7.794;2022-10-16T03:39:19;15.00;99.90
21722;DHT22;11023;48.274;7.794;2022-10-16T03:41:45;15.00;99.90
21722;DHT22;11023;48.274;7.794;2022-10-16T03:44:14;15.00;99.90
21722;DHT22;11023;48.274;7.794;2022-10-16T03:46:40;15.00;99.90
21722;DHT22;11023;48.274;7.794;2022-10-16T03:49:05;15.00;99.90
21722;DHT22;11023;48.274;7.794;2022-10-16T03:51:31;15.00;99.90
21722;DHT22;11023;48.274;7.794;2022-10-16T03:53:57;15.00;99.90
21722;DHT22;11023;48.274;7.794;2022-10-16T03:56:23;15.00;99.90
21722;DHT22;11023;48.274;7.794;2022-10-16T03:58:49;15.00;99.90
21722;DHT22;11023;48.274;7.794;2022-10-16T04:01:15;15.00;99.90
21722;DHT22;11023;48.274;7.794;2022-10-16T04:03:40;15.00;99.90
21722;DHT22;11023;48.274;7.794;2022-10-16T04:06:07;15.00;99.90
21722;DHT22;11023;48.274;7.794;2022-10-16T04:08:34;15.00;99.90
21722;DHT22;11023;48.274;7.794;2022-10-16T04:11:02;14.90;99.90
21722;DHT22;11023;48.274;7.794;2022-10-16T04:13:28;14.80;99.90
21722;DHT22;11023;48.274;7.794;2022-10-16T04:15:54;14.80;99.90
21722;DHT22;11023;48.274;7.794;2022-10-16T04:18:20;14.70;99.90
21722;DHT22;11023;48.274;7.794;2022-10-16T04:20:46;14.70;99.90
21722;DHT22;11023;48.274;7.794;2022-10-16T04:23:11;14.70;99.90
21722;DHT22;11023;48.274;7.794;2022-10-16T04:25:39;14.70;99.90
21722;DHT22;11023;48.274;7.794;2022-10-16T04:28:05;14.60;99.90
21722;DHT22;11023;48.274;7.794;2022-10-16T04:30:30;14.60;99.90
21722;DHT22;11023;48.274;7.794;2022-10-16T04:32:56;14.60;99.90
21722;DHT22;11023;48.274;7.794;2022-10-16T04:35:22;14.60;99.90
21722;DHT22;11023;48.274;7.794;2022-10-16T04:37:48;14.60;99.90
21722;DHT22;11023;48.274;7.794;2022-10-16T04:40:14;14.70;99.90
21722;DHT22;11023;48.274;7.794;2022-10-16T04:42:40;14.60;99.90
21722;DHT22;11023;48.274;7.794;2022-10-16T04:45:06;14.60;99.90
21722;DHT22;11023;48.274;7.794;2022-10-16T04:47:33;14.60;99.90
21722;DHT22;11023;48.274;7.794;2022-10-16T04:49:59;14.70;99.90
21722;DHT22;11023;48.274;7.794;2022-10-16T04:52:28;14.70;99.90
21722;DHT22;11023;48.274;7.794;2022-10-16T04:54:53;14.70;99.90
21722;DHT22;11023;48.274;7.794;2022-10-16T04:57:20;14.70;99.90
21722;DHT22;11023;48.274;7.794;2022-10-16T04:59:46;14.70;99.90
21722;DHT22;11023;48.274;7.794;2022-10-16T05:02:13;14.70;99.90
21722;DHT22;11023;48.274;7.794;2022-10-16T05:04:39;14.80;99.90
21722;DHT22;11023;48.274;7.794;2022-10-16T05:07:05;14.80;99.90
21722;DHT22;11023;48.274;7.794;2022-10-16T05:09:30;14.80;99.90
21722;DHT22;11023;48.274;7.794;2022-10-16T05:11:56;14.80;99.90
21722;DHT22;11023;48.274;7.794;2022-10-16T05:14:22;14.80;99.90
21722;DHT22;11023;48.274;7.794;2022-10-16T05:16:47;14.90;99.90
21722;DHT22;11023;48.274;7.794;2022-10-16T05:19:14;14.80;99.90
21722;DHT22;11023;48.274;7.794;2022-10-16T05:21:40;14.80;99.90
21722;DHT22;11023;48.274;7.794;2022-10-16T05:24:06;14.80;99.90
21722;DHT22;11023;48.274;7.794;2022-10-16T05:26:32;14.80;99.90
21722;DHT22;11023;48.274;7.794;2022-10-16T05:28:59;14.80;99.90
21722;DHT22;11023;48.274;7.794;2022-10-16T05:31:25;14.80;99.90
21722;DHT22;11023;48.274;7.794;2022-10-16T05:33:51;14.80;99.90
21722;DHT22;11023;48.274;7.794;2022-10-16T05:36:17;14.80;99.90
21722;DHT22;11023;48.274;7.794;2022-10-16T05:38:43;14.80;99.90
21722;DHT22;11023;48.274;7.794;2022-10-16T05:41:11;14.80;99.90
21722;DHT22;11023;48.274;7.794;2022-10-16T05:43:36;14.70;99.90
21722;DHT22;11023;48.274;7.794;2022-10-16T05:46:06;14.70;99.90
21722;DHT22;11023;48.274;7.794;2022-10-16T05:48:32;14.60;99.90
21722;DHT22;11023;48.274;7.794;2022-10-16T05:50:59;14.60;99.90
21722;DHT22;11023;48.274;7.794;2022-10-16T05:53:27;14.60;99.90
21722;DHT22;11023;48.274;7.794;2022-10-16T05:55:54;14.50;99.90
21722;DHT22;11023;48.274;7.794;2022-10-16T05:58:21;14.60;99.90
21722;DHT22;11023;48.274;7.794;2022-10-16T06:00:58;14.60;99.90
21722;DHT22;11023;48.274;7.794;2022-10-16T06:03:24;14.60;99.90
21722;DHT22;11023;48.274;7.794;2022-10-16T06:05:50;14.60;99.90
21722;DHT22;11023;48.274;7.794;2022-10-16T06:08:16;14.60;99.90
21722;DHT22;11023;48.274;7.794;2022-10-16T06:10:43;14.60;99.90
21722;DHT22;11023;48.274;7.794;2022-10-16T06:13:09;14.60;99.90
21722;DHT22;11023;48.274;7.794;2022-10-16T06:15:35;14.60;99.90
21722;DHT22;11023;48.274;7.794;2022-10-16T06:18:01;14.70;99.90
21722;DHT22;11023;48.274;7.794;2022-10-16T06:20:27;14.70;99.90
21722;DHT22;11023;48.274;7.794;2022-10-16T06:22:54;14.70;99.90
21722;DHT22;11023;48.274;7.794;2022-10-16T06:25:20;14.70;99.90
21722;DHT22;11023;48.274;7.794;2022-10-16T06:27:46;14.70;99.90
21722;DHT22;11023;48.274;7.794;2022-10-16T06:30:12;14.70;99.90
21722;DHT22;11023;48.274;7.794;2022-10-16T06:32:38;14.70;99.90
21722;DHT22;11023;48.274;7.794;2022-10-16T06:35:05;14.70;99.90
21722;DHT22;11023;48.274;7.794;2022-10-16T06:37:31;14.80;99.90
21722;DHT22;11023;48.274;7.794;2022-10-16T06:39:57;14.80;99.90
21722;DHT22;11023;48.274;7.794;2022-10-16T06:42:23;14.80;99.90
21722;DHT22;11023;48.274;7.794;2022-10-16T06:44:49;14.80;99.90
21722;DHT22;11023;48.274;7.794;2022-10-16T06:47:15;14.90;99.90
21722;DHT22;11023;48.274;7.794;2022-10-16T06:49:41;14.90;99.90
21722;DHT22;11023;48.274;7.794;2022-10-16T06:52:08;14.90;99.90
21722;DHT22;11023;48.274;7.794;2022-10-16T06:54:34;15.00;99.90
21722;DHT22;11023;48.274;7.794;2022-10-16T06:56:59;15.10;99.90
21722;DHT22;11023;48.274;7.794;2022-10-16T06:59:26;15.10;99.90
21722;DHT22;11023;48.274;7.794;2022-10-16T07:01:52;15.10;99.90
21722;DHT22;11023;48.274;7.794;2022-10-16T07:04:18;15.20;99.90
21722;DHT22;11023;48.274;7.794;2022-10-16T07:06:43;15.30;99.90
21722;DHT22;11023;48.274;7.794;2022-10-16T07:09:10;15.30;99.90
21722;DHT22;11023;48.274;7.794;2022-10-16T07:11:38;15.30;99.90
21722;DHT22;11023;48.274;7.794;2022-10-16T07:14:08;15.40;99.90
21722;DHT22;11023;48.274;7.794;2022-10-16T07:16:38;15.40;99.90
21722;DHT22;11023;48.274;7.794;2022-10-16T07:19:03;15.40;99.90
21722;DHT22;11023;48.274;7.794;2022-10-16T07:21:32;15.50;99.90
21722;DHT22;11023;48.274;7.794;2022-10-16T07:24:01;15.50;99.90
21722;DHT22;11023;48.274;7.794;2022-10-16T07:26:30;15.40;99.90
21722;DHT22;11023;48.274;7.794;2022-10-16T07:28:56;15.50;99.90
21722;DHT22;11023;48.274;7.794;2022-10-16T07:31:23;15.50;99.90
21722;DHT22;11023;48.274;7.794;2022-10-16T07:33:49;15.60;99.90
21722;DHT22;11023;48.274;7.794;2022-10-16T07:36:16;15.60;99.90
21722;DHT22;11023;48.274;7.794;2022-10-16T07:38:43;15.60;99.90
21722;DHT22;11023;48.274;7.794;2022-10-16T07:41:12;15.60;99.90
21722;DHT22;11023;48.274;7.794;2022-10-16T07:43:39;15.60;99.90
21722;DHT22;11023;48.274;7.794;2022-10-16T07:46:05;15.70;99.90
21722;DHT22;11023;48.274;7.794;2022-10-16T07:48:33;15.70;99.90
21722;DHT22;11023;48.274;7.794;2022-10-16T07:51:04;15.70;99.90
21722;DHT22;11023;48.274;7.794;2022-10-16T07:53:30;15.80;99.90
21722;DHT22;11023;48.274;7.794;2022-10-16T07:56:05;15.90;99.90
21722;DHT22;11023;48.274;7.794;2022-10-16T07:58:32;15.90;99.90
21722;DHT22;11023;48.274;7.794;2022-10-16T08:00:59;16.00;99.90
21722;DHT22;11023;48.274;7.794;2022-10-16T08:03:25;16.00;99.90
21722;DHT22;11023;48.274;7.794;2022-10-16T08:05:51;16.20;99.90
21722;DHT22;11023;48.274;7.794;2022-10-16T08:08:18;16.20;99.90
21722;DHT22;11023;48.274;7.794;2022-10-16T08:10:44;16.30;99.90
21722;DHT22;11023;48.274;7.794;2022-10-16T08:13:09;16.40;99.90
21722;DHT22;11023;48.274;7.794;2022-10-16T08:15:35;16.50;99.90
21722;DHT22;11023;48.274;7.794;2022-10-16T08:18:03;16.50;99.90
21722;DHT22;11023;48.274;7.794;2022-10-16T08:20:30;16.60;99.90
21722;DHT22;11023;48.274;7.794;2022-10-16T08:22:56;16.70;99.90
21722;DHT22;11023;48.274;7.794;2022-10-16T08:25:23;16.80;99.90
21722;DHT22;11023;48.274;7.794;2022-10-16T08:27:49;17.00;99.90
21722;DHT22;11023;48.274;7.794;2022-10-16T08:30:16;17.00;99.90
21722;DHT22;11023;48.274;7.794;2022-10-16T08:32:42;17.20;99.90
21722;DHT22;11023;48.274;7.794;2022-10-16T08:35:09;17.20;99.90
21722;DHT22;11023;48.274;7.794;2022-10-16T08:37:35;17.30;99.90
21722;DHT22;11023;48.274;7.794;2022-10-16T08:40:00;17.40;99.90
21722;DHT22;11023;48.274;7.794;2022-10-16T08:48:55;17.60;99.90
21722;DHT22;11023;48.274;7.794;2022-10-16T08:50:51;17.70;99.90
21722;DHT22;11023;48.274;7.794;2022-10-16T08:53:24;17.70;99.90
21722;DHT22;11023;48.274;7.794;2022-10-16T08:55:52;17.80;99.90
21722;DHT22;11023;48.274;7.794;2022-10-16T08:58:23;18.00;99.90
21722;DHT22;11023;48.274;7.794;2022-10-16T09:00:57;18.10;99.90
21722;DHT22;11023;48.274;7.794;2022-10-16T09:16:44;19.30;99.90
21722;DHT22;11023;48.274;7.794;2022-10-16T09:19:16;19.40;99.90
21722;DHT22;11023;48.274;7.794;2022-10-16T09:21:45;19.60;99.90
21722;DHT22;11023;48.274;7.794;2022-10-16T09:24:23;19.60;99.90
21722;DHT22;11023;48.274;7.794;2022-10-16T09:26:50;19.80;99.90
21722;DHT22;11023;48.274;7.794;2022-10-16T09:29:17;19.90;99.90
21722;DHT22;11023;48.274;7.794;2022-10-16T09:31:45;19.90;99.90
21722;DHT22;11023;48.274;7.794;2022-10-16T09:36:45;20.20;99.90
21722;DHT22;11023;48.274;7.794;2022-10-16T09:39:12;20.30;99.90
21722;DHT22;11023;48.274;7.794;2022-10-16T09:41:39;20.40;99.90
21722;DHT22;11023;48.274;7.794;2022-10-16T09:44:28;20.40;99.90
21722;DHT22;11023;48.274;7.794;2022-10-16T09:47:20;20.40;99.90
21722;DHT22;11023;48.274;7.794;2022-10-16T09:52:19;20.40;99.90
21722;DHT22;11023;48.274;7.794;2022-10-16T09:54:59;20.40;99.90
21722;DHT22;11023;48.274;7.794;2022-10-16T09:57:26;20.40;99.90
21722;DHT22;11023;48.274;7.794;2022-10-16T09:59:54;20.50;99.90
21722;DHT22;11023;48.274;7.794;2022-10-16T10:02:35;20.60;99.90
21722;DHT22;11023;48.274;7.794;2022-10-16T10:05:02;20.60;99.90
21722;DHT22;11023;48.274;7.794;2022-10-16T10:07:38;20.70;99.90
21722;DHT22;11023;48.274;7.794;2022-10-16T10:10:18;20.80;99.90
21722;DHT22;11023;48.274;7.794;2022-10-16T10:12:45;20.80;99.90
21722;DHT22;11023;48.274;7.794;2022-10-16T10:15:12;20.90;99.90
21722;DHT22;11023;48.274;7.794;2022-10-16T10:17:50;21.00;99.90
21722;DHT22;11023;48.274;7.794;2022-10-16T10:20:29;21.10;99.90
21722;DHT22;11023;48.274;7.794;2022-10-16T10:22:56;21.20;99.90
21722;DHT22;11023;48.274;7.794;2022-10-16T10:28:30;21.40;99.90
21722;DHT22;11023;48.274;7.794;2022-10-16T10:31:17;21.50;99.90
21722;DHT22;11023;48.274;7.794;2022-10-16T10:33:49;21.50;99.90
21722;DHT22;11023;48.274;7.794;2022-10-16T10:36:37;21.60;99.90
21722;DHT22;11023;48.274;7.794;2022-10-16T10:39:29;21.60;99.90
21722;DHT22;11023;48.274;7.794;2022-10-16T10:44:30;21.70;99.90
21722;DHT22;11023;48.274;7.794;2022-10-16T10:55:52;21.90;99.90
21722;DHT22;11023;48.274;7.794;2022-10-16T11:01:14;22.00;99.90
21722;DHT22;11023;48.274;7.794;2022-10-16T11:07:32;22.10;99.90
21722;DHT22;11023;48.274;7.794;2022-10-16T11:10:16;22.00;99.90
21722;DHT22;11023;48.274;7.794;2022-10-16T11:16:23;22.00;99.90
21722;DHT22;11023;48.274;7.794;2022-10-16T11:22:01;22.20;99.90
21722;DHT22;11023;48.274;7.794;2022-10-16T11:24:41;22.40;99.90
21722;DHT22;11023;48.274;7.794;2022-10-16T11:27:09;22.40;99.90
21722;DHT22;11023;48.274;7.794;2022-10-16T11:29:46;22.40;99.90
21722;DHT22;11023;48.274;7.794;2022-10-16T11:32:44;22.40;99.90
21722;DHT22;11023;48.274;7.794;2022-10-16T11:38:04;22.70;99.90
21722;DHT22;11023;48.274;7.794;2022-10-16T11:40:38;22.80;99.90
21722;DHT22;11023;48.274;7.794;2022-10-16T11:43:35;22.90;99.90
21722;DHT22;11023;48.274;7.794;2022-10-16T11:46:12;22.90;99.90
21722;DHT22;11023;48.274;7.794;2022-10-16T11:48:50;22.90;99.90
21722;DHT22;11023;48.274;7.794;2022-10-16T11:56:31;23.00;99.90
21722;DHT22;11023;48.274;7.794;2022-10-16T11:59:06;23.10;99.90
21722;DHT22;11023;48.274;7.794;2022-10-16T12:01:50;23.10;99.90
21722;DHT22;11023;48.274;7.794;2022-10-16T12:04:38;23.40;99.90
21722;DHT22;11023;48.274;7.794;2022-10-16T12:07:17;23.60;99.90
21722;DHT22;11023;48.274;7.794;2022-10-16T12:09:45;23.80;99.90
21722;DHT22;11023;48.274;7.794;2022-10-16T12:17:37;24.00;99.90
21722;DHT22;11023;48.274;7.794;2022-10-16T12:22:41;24.10;99.90
21722;DHT22;11023;48.274;7.794;2022-10-16T12:28:00;24.20;99.90
21722;DHT22;11023;48.274;7.794;2022-10-16T12:30:29;24.30;99.90
21722;DHT22;11023;48.274;7.794;2022-10-16T12:33:02;24.40;99.90
21722;DHT22;11023;48.274;7.794;2022-10-16T12:35:34;24.40;99.90
21722;DHT22;11023;48.274;7.794;2022-10-16T12:38:26;24.50;99.90
21722;DHT22;11023;48.274;7.794;2022-10-16T12:41:04;24.50;99.90
21722;DHT22;11023;48.274;7.794;2022-10-16T12:48:34;24.60;99.90
21722;DHT22;11023;48.274;7.794;2022-10-16T12:53:36;24.50;99.90
21722;DHT22;11023;48.274;7.794;2022-10-16T13:01:42;24.70;99.90
21722;DHT22;11023;48.274;7.794;2022-10-16T13:04:42;24.80;99.90
21722;DHT22;11023;48.274;7.794;2022-10-16T13:07:28;25.00;99.90
21722;DHT22;11023;48.274;7.794;2022-10-16T13:10:21;25.20;99.90
21722;DHT22;11023;48.274;7.794;2022-10-16T13:18:40;25.70;99.90
21722;DHT22;11023;48.274;7.794;2022-10-16T13:24:07;25.90;99.90
21722;DHT22;11023;48.274;7.794;2022-10-16T13:27:01;26.00;99.90
21722;DHT22;11023;48.274;7.794;2022-10-16T13:29:31;26.00;99.90
21722;DHT22;11023;48.274;7.794;2022-10-16T13:31:58;26.10;99.90
21722;DHT22;11023;48.274;7.794;2022-10-16T13:34:25;26.10;99.90
21722;DHT22;11023;48.274;7.794;2022-10-16T13:36:52;26.20;99.90
21722;DHT22;11023;48.274;7.794;2022-10-16T13:42:01;26.40;99.90
21722;DHT22;11023;48.274;7.794;2022-10-16T13:44:34;26.50;99.90
21722;DHT22;11023;48.274;7.794;2022-10-16T13:47:02;26.60;99.90
21722;DHT22;11023;48.274;7.794;2022-10-16T13:49:28;26.70;99.90
21722;DHT22;11023;48.274;7.794;2022-10-16T13:51:58;26.70;99.90
21722;DHT22;11023;48.274;7.794;2022-10-16T13:54:26;26.60;99.90
21722;DHT22;11023;48.274;7.794;2022-10-16T13:56:52;26.70;99.90
21722;DHT22;11023;48.274;7.794;2022-10-16T13:59:33;26.60;99.90
21722;DHT22;11023;48.274;7.794;2022-10-16T14:02:00;26.60;99.90
21722;DHT22;11023;48.274;7.794;2022-10-16T14:04:32;26.60;99.90
21722;DHT22;11023;48.274;7.794;2022-10-16T14:06:58;26.60;99.90
21722;DHT22;11023;48.274;7.794;2022-10-16T14:09:26;26.60;99.90
21722;DHT22;11023;48.274;7.794;2022-10-16T14:11:57;26.70;99.90
21722;DHT22;11023;48.274;7.794;2022-10-16T14:14:23;26.80;99.90
21722;DHT22;11023;48.274;7.794;2022-10-16T14:16:50;26.70;99.90
21722;DHT22;11023;48.274;7.794;2022-10-16T14:19:25;26.60;99.90
21722;DHT22;11023;48.274;7.794;2022-10-16T14:21:52;26.60;99.90
21722;DHT22;11023;48.274;7.794;2022-10-16T14:24:32;26.60;99.90
21722;DHT22;11023;48.274;7.794;2022-10-16T14:26:59;26.50;99.90
21722;DHT22;11023;48.274;7.794;2022-10-16T14:29:27;26.60;99.90
21722;DHT22;11023;48.274;7.794;2022-10-16T14:32:01;26.60;99.90
21722;DHT22;11023;48.274;7.794;2022-10-16T14:36:54;26.90;99.90
21722;DHT22;11023;48.274;7.794;2022-10-16T14:39:22;27.00;99.90
21722;DHT22;11023;48.274;7.794;2022-10-16T14:41:50;27.00;99.90
21722;DHT22;11023;48.274;7.794;2022-10-16T14:44:25;27.00;99.90
21722;DHT22;11023;48.274;7.794;2022-10-16T14:46:52;27.10;99.90
21722;DHT22;11023;48.274;7.794;2022-10-16T14:49:19;27.20;99.90
21722;DHT22;11023;48.274;7.794;2022-10-16T14:51:46;27.30;99.90
21722;DHT22;11023;48.274;7.794;2022-10-16T14:54:13;27.30;99.90
21722;DHT22;11023;48.274;7.794;2022-10-16T14:56:52;27.30;99.90
21722;DHT22;11023;48.274;7.794;2022-10-16T14:59:39;27.30;99.90
21722;DHT22;11023;48.274;7.794;2022-10-16T15:02:25;27.40;99.90
21722;DHT22;11023;48.274;7.794;2022-10-16T15:04:52;27.50;99.90
21722;DHT22;11023;48.274;7.794;2022-10-16T15:07:18;27.60;99.90
21722;DHT22;11023;48.274;7.794;2022-10-16T15:09:44;27.60;99.90
21722;DHT22;11023;48.274;7.794;2022-10-16T15:12:09;27.60;99.90
21722;DHT22;11023;48.274;7.794;2022-10-16T15:14:35;27.60;99.90
21722;DHT22;11023;48.274;7.794;2022-10-16T15:17:01;27.60;99.90
21722;DHT22;11023;48.274;7.794;2022-10-16T15:19:27;27.60;99.90
21722;DHT22;11023;48.274;7.794;2022-10-16T15:21:52;27.50;99.90
21722;DHT22;11023;48.274;7.794;2022-10-16T15:24:18;27.50;99.90
21722;DHT22;11023;48.274;7.794;2022-10-16T15:26:44;27.50;99.90
21722;DHT22;11023;48.274;7.794;2022-10-16T15:29:12;27.40;99.90
21722;DHT22;11023;48.274;7.794;2022-10-16T15:31:38;27.30;99.90
21722;DHT22;11023;48.274;7.794;2022-10-16T15:34:04;27.10;99.90
21722;DHT22;11023;48.274;7.794;2022-10-16T15:36:33;26.80;99.90
21722;DHT22;11023;48.274;7.794;2022-10-16T15:39:05;26.60;99.90
21722;DHT22;11023;48.274;7.794;2022-10-16T15:41:31;26.30;99.90
21722;DHT22;11023;48.274;7.794;2022-10-16T15:43:56;26.10;99.90
21722;DHT22;11023;48.274;7.794;2022-10-16T15:46:23;25.90;99.90
21722;DHT22;11023;48.274;7.794;2022-10-16T15:48:50;25.70;99.90
21722;DHT22;11023;48.274;7.794;2022-10-16T15:51:17;25.50;99.90
21722;DHT22;11023;48.274;7.794;2022-10-16T15:53:44;25.40;99.90
21722;DHT22;11023;48.274;7.794;2022-10-16T15:56:12;25.30;99.90
21722;DHT22;11023;48.274;7.794;2022-10-16T15:58:38;25.20;99.90
21722;DHT22;11023;48.274;7.794;2022-10-16T16:01:05;25.10;99.90
21722;DHT22;11023;48.274;7.794;2022-10-16T16:03:31;24.90;99.90
21722;DHT22;11023;48.274;7.794;2022-10-16T16:05:57;24.90;99.90
21722;DHT22;11023;48.274;7.794;2022-10-16T16:08:23;24.70;99.90
21722;DHT22;11023;48.274;7.794;2022-10-16T16:11:06;24.70;99.90
21722;DHT22;11023;48.274;7.794;2022-10-16T16:13:32;24.50;99.90
21722;DHT22;11023;48.274;7.794;2022-10-16T16:15:58;24.40;99.90
21722;DHT22;11023;48.274;7.794;2022-10-16T16:18:23;24.20;99.90
21722;DHT22;11023;48.274;7.794;2022-10-16T16:20:50;24.10;99.90
21722;DHT22;11023;48.274;7.794;2022-10-16T16:23:16;24.00;99.90
21722;DHT22;11023;48.274;7.794;2022-10-16T16:25:42;23.80;99.90
21722;DHT22;11023;48.274;7.794;2022-10-16T16:28:07;23.60;99.90
21722;DHT22;11023;48.274;7.794;2022-10-16T16:30:36;23.50;99.90
21722;DHT22;11023;48.274;7.794;2022-10-16T16:33:01;23.30;99.90
21722;DHT22;11023;48.274;7.794;2022-10-16T16:35:27;23.20;99.90
21722;DHT22;11023;48.274;7.794;2022-10-16T16:37:53;23.10;99.90
21722;DHT22;11023;48.274;7.794;2022-10-16T16:40:18;22.90;99.90
21722;DHT22;11023;48.274;7.794;2022-10-16T16:42:44;22.70;99.90
21722;DHT22;11023;48.274;7.794;2022-10-16T16:45:09;22.60;99.90
21722;DHT22;11023;48.274;7.794;2022-10-16T16:47:35;22.50;99.90
21722;DHT22;11023;48.274;7.794;2022-10-16T16:50:01;22.40;99.90
21722;DHT22;11023;48.274;7.794;2022-10-16T16:52:30;22.30;99.90
21722;DHT22;11023;48.274;7.794;2022-10-16T16:54:55;22.20;99.90
21722;DHT22;11023;48.274;7.794;2022-10-16T16:57:21;22.00;99.90
21722;DHT22;11023;48.274;7.794;2022-10-16T16:59:50;21.80;99.90
21722;DHT22;11023;48.274;7.794;2022-10-16T17:02:16;21.70;99.90
21722;DHT22;11023;48.274;7.794;2022-10-16T17:04:43;21.60;99.90
21722;DHT22;11023;48.274;7.794;2022-10-16T17:07:09;21.50;99.90
21722;DHT22;11023;48.274;7.794;2022-10-16T17:09:35;21.30;99.90
21722;DHT22;11023;48.274;7.794;2022-10-16T17:12:01;21.20;99.90
21722;DHT22;11023;48.274;7.794;2022-10-16T17:14:26;21.00;99.90
21722;DHT22;11023;48.274;7.794;2022-10-16T17:16:52;20.90;99.90
21722;DHT22;11023;48.274;7.794;2022-10-16T17:19:19;20.80;99.90
21722;DHT22;11023;48.274;7.794;2022-10-16T17:21:48;20.70;99.90
21722;DHT22;11023;48.274;7.794;2022-10-16T17:24:15;20.70;99.90
21722;DHT22;11023;48.274;7.794;2022-10-16T17:26:40;20.60;99.90
21722;DHT22;11023;48.274;7.794;2022-10-16T17:29:11;20.50;99.90
21722;DHT22;11023;48.274;7.794;2022-10-16T17:31:38;20.50;99.90
21722;DHT22;11023;48.274;7.794;2022-10-16T17:34:06;20.50;99.90
21722;DHT22;11023;48.274;7.794;2022-10-16T17:36:34;20.40;99.90